Weerspreuk van de dag: Maakt de spin in 't web een scheur, dan klopt weldra de stormwind aan de deur.
Es ist keine erhöhte Aufmerksamkeit aufgrund des Wetters notwendig.    Es gibt keine Warnungen.

Thunder radar more information blitzortung!


Rain radar more information rain snow radar


Bekijk deze sites ook eens:

FPL Automotive (TIP)

Autostekkers.nl (TIP)

Over Luyksgestel

De Kempen, mijn omgeving

BOL.com

Weerstation Noordbergum

Inktweb

Weerstation Hapert

Weerstation Hoogeloon

Weerstation Son&Breugel

Weerstation Castaert

Nieuw horloge

Weerstation Tilburg Reeshof

Weerstation Scheulder

Weerverwachting Samos

Samos actueel

Weerwoord (forum)

Griekenlandforum

Vakantie naar Samos

Winterzon

Canon

Wolven in Nederland



METAR-Meldungen aus der Umgebung

   
EBAW - Antwerp
Aktualisierung: 31-10-2020 10:50
Teilweise bewölkt  
Teilweise bewölkt  
   Wind: Süden 20.4 km/h
Wind: Süden 20.4 km/h
Temperatur: 15°C
Taupunkt: 9°C
Luftfeuchte: 68%
Luftdruck: 1018 hPa
Bewölkt: Teilweise bewölkt
Sichtbarkeit: More than 10 km
Bewölkung: leicht bewölkt 2000 ft,
Teilweise bewölkt 3600 ft
EBAW 310950Z 19011KT 9999 FEW020 SCT036 15/09 Q1018 NOSIG
EBLG - Liège
Aktualisierung: 31-10-2020 10:50
Klar  
Klar  
   Wind: Süden 25.9 km/h<br />Gust to 25.9 km/h
Wind: Süden 25.9 km/h
Gust to 25.9 km/h
Temperatur: 14°C
Taupunkt: 8°C
Luftfeuchte: 67%
Luftdruck: 1019 hPa
Sichtbarkeit: More than 10 km
Bewölkung: Klar
EBLG 310950Z 19014G26KT 160V220 CAVOK 14/08 Q1019 NOSIG
EBCV - Mons/Bergen
Aktualisierung: 31-10-2020 10:55
Stark bewölkt  
Stark bewölkt  
   Wind: Süden 31.5 km/h
Wind: Süden 31.5 km/h
Temperatur: 14°C
Taupunkt: 9°C
Luftfeuchte: 72%
Luftdruck: 1018 hPa
Bewölkt: Stark bewölkt
Sichtbarkeit: More than 10 km
Bewölkung: Stark bewölkt 3100 ft
EBCV 310955Z AUTO 19017KT 9999 BKN031/// 14/09 Q1018 BLU
EHBK - Maastricht
Aktualisierung: 31-10-2020 10:55
Klar  
Klar  
   Wind: Süden 16.7 km/h
Wind: Süden 16.7 km/h
Temperatur: 15°C
Taupunkt: 9°C
Luftfeuchte: 68%
Luftdruck: 1019 hPa
Bewölkt: Klar
Sichtbarkeit: More than 10 km
Bewölkung: Klar
EHBK 310955Z AUTO 17009KT 140V210 9999 NCD 15/09 Q1019 NOSIG
ELLX - Luxemburg
Aktualisierung: 31-10-2020 10:50
Klar  
Klar  
   Wind: Süden 22.2 km/h
Wind: Süden 22.2 km/h
Temperatur: 12°C
Taupunkt: 7°C
Luftfeuchte: 72%
Luftdruck: 1022 hPa
Sichtbarkeit: More than 10 km
Bewölkung: Klar
ELLX 310950Z 17012KT CAVOK 12/07 Q1022 NOSIG
EBOS - Oostende
Aktualisierung: 31-10-2020 10:50
Teilweise bewölkt  
Teilweise bewölkt  
   Wind: Süden 29.6 km/h
Wind: Süden 29.6 km/h
Temperatur: 14°C
Taupunkt: 10°C
Luftfeuchte: 77%
Luftdruck: 1016 hPa
Bewölkt: Teilweise bewölkt
Sichtbarkeit: More than 10 km
Bewölkung: Teilweise bewölkt 3900 ft
EBOS 310950Z 18016KT 9999 SCT039 14/10 Q1016 NOSIG

Script entwickelt von  Saratoga-weather.org Angepasst für das Template von  Weerstation Leuven

Sie finden unser Wetter-Infos auch auf:

Het Weer Aktueel

UK Metoffice

European Weather Network

Weather Underground

AWEKAS